sensor_id;sensor_type;location;lat;lon;timestamp;P1;durP1;ratioP1;P2;durP2;ratioP2
23052;SDS011;11694;-36.632;-64.318;2022-12-24T00:00:58;5.37;;;1.80;;
23052;SDS011;11694;-36.632;-64.318;2022-12-24T00:03:25;7.43;;;1.80;;
23052;SDS011;11694;-36.632;-64.318;2022-12-24T00:05:53;9.47;;;1.73;;
23052;SDS011;11694;-36.632;-64.318;2022-12-24T00:08:20;7.40;;;1.77;;
23052;SDS011;11694;-36.632;-64.318;2022-12-24T00:10:51;7.90;;;2.00;;
23052;SDS011;11694;-36.632;-64.318;2022-12-24T00:13:19;8.93;;;2.47;;
23052;SDS011;11694;-36.632;-64.318;2022-12-24T00:15:48;11.13;;;2.47;;
23052;SDS011;11694;-36.632;-64.318;2022-12-24T00:18:15;11.13;;;2.20;;
23052;SDS011;11694;-36.632;-64.318;2022-12-24T00:20:48;9.67;;;2.40;;
23052;SDS011;11694;-36.632;-64.318;2022-12-24T00:23:16;14.00;;;2.60;;
23052;SDS011;11694;-36.632;-64.318;2022-12-24T00:25:43;10.63;;;2.93;;
23052;SDS011;11694;-36.632;-64.318;2022-12-24T00:28:12;13.53;;;3.07;;
23052;SDS011;11694;-36.632;-64.318;2022-12-24T00:30:40;11.90;;;3.03;;
23052;SDS011;11694;-36.632;-64.318;2022-12-24T00:33:08;11.43;;;2.50;;
23052;SDS011;11694;-36.632;-64.318;2022-12-24T00:35:36;12.10;;;2.70;;
23052;SDS011;11694;-36.632;-64.318;2022-12-24T00:38:04;14.70;;;3.10;;
23052;SDS011;11694;-36.632;-64.318;2022-12-24T00:40:31;10.67;;;2.83;;
23052;SDS011;11694;-36.632;-64.318;2022-12-24T00:42:59;13.20;;;3.10;;
23052;SDS011;11694;-36.632;-64.318;2022-12-24T00:45:26;9.57;;;2.77;;
23052;SDS011;11694;-36.632;-64.318;2022-12-24T00:47:53;14.47;;;3.30;;
23052;SDS011;11694;-36.632;-64.318;2022-12-24T00:50:20;15.63;;;3.53;;
23052;SDS011;11694;-36.632;-64.318;2022-12-24T00:52:47;9.90;;;2.47;;
23052;SDS011;11694;-36.632;-64.318;2022-12-24T00:55:14;12.47;;;2.60;;
23052;SDS011;11694;-36.632;-64.318;2022-12-24T00:57:41;14.53;;;2.90;;
23052;SDS011;11694;-36.632;-64.318;2022-12-24T01:00:09;10.57;;;2.90;;
23052;SDS011;11694;-36.632;-64.318;2022-12-24T01:02:36;14.07;;;3.20;;
23052;SDS011;11694;-36.632;-64.318;2022-12-24T01:05:03;11.20;;;3.73;;
23052;SDS011;11694;-36.632;-64.318;2022-12-24T01:07:37;13.60;;;3.37;;
23052;SDS011;11694;-36.632;-64.318;2022-12-24T01:10:12;17.23;;;3.80;;
23052;SDS011;11694;-36.632;-64.318;2022-12-24T01:12:41;13.27;;;3.53;;
23052;SDS011;11694;-36.632;-64.318;2022-12-24T01:15:08;14.57;;;3.90;;
23052;SDS011;11694;-36.632;-64.318;2022-12-24T01:17:37;16.13;;;3.23;;
23052;SDS011;11694;-36.632;-64.318;2022-12-24T01:20:05;17.83;;;4.57;;
23052;SDS011;11694;-36.632;-64.318;2022-12-24T01:22:34;14.90;;;3.77;;
23052;SDS011;11694;-36.632;-64.318;2022-12-24T01:25:03;15.97;;;3.57;;
23052;SDS011;11694;-36.632;-64.318;2022-12-24T01:27:32;19.47;;;3.87;;
23052;SDS011;11694;-36.632;-64.318;2022-12-24T01:30:02;17.33;;;4.10;;
23052;SDS011;11694;-36.632;-64.318;2022-12-24T01:32:31;17.07;;;4.60;;
23052;SDS011;11694;-36.632;-64.318;2022-12-24T01:34:58;18.90;;;4.00;;
23052;SDS011;11694;-36.632;-64.318;2022-12-24T01:37:25;21.20;;;3.97;;
23052;SDS011;11694;-36.632;-64.318;2022-12-24T01:39:52;12.67;;;3.57;;
23052;SDS011;11694;-36.632;-64.318;2022-12-24T01:42:41;13.03;;;3.77;;
23052;SDS011;11694;-36.632;-64.318;2022-12-24T01:45:41;15.83;;;3.97;;
23052;SDS011;11694;-36.632;-64.318;2022-12-24T01:48:55;15.47;;;3.60;;
23052;SDS011;11694;-36.632;-64.318;2022-12-24T01:51:29;14.37;;;3.47;;
23052;SDS011;11694;-36.632;-64.318;2022-12-24T01:54:04;14.57;;;3.47;;
23052;SDS011;11694;-36.632;-64.318;2022-12-24T01:56:44;16.23;;;3.50;;
23052;SDS011;11694;-36.632;-64.318;2022-12-24T01:59:16;14.97;;;2.97;;
23052;SDS011;11694;-36.632;-64.318;2022-12-24T02:01:47;15.83;;;3.77;;
23052;SDS011;11694;-36.632;-64.318;2022-12-24T02:04:22;18.73;;;3.83;;
23052;SDS011;11694;-36.632;-64.318;2022-12-24T02:06:57;15.53;;;2.97;;
23052;SDS011;11694;-36.632;-64.318;2022-12-24T02:09:25;16.27;;;3.23;;
23052;SDS011;11694;-36.632;-64.318;2022-12-24T02:11:53;12.87;;;3.10;;
23052;SDS011;11694;-36.632;-64.318;2022-12-24T02:14:21;16.40;;;3.37;;
23052;SDS011;11694;-36.632;-64.318;2022-12-24T02:17:06;16.67;;;3.33;;
23052;SDS011;11694;-36.632;-64.318;2022-12-24T02:31:26;15.03;;;3.17;;
23052;SDS011;11694;-36.632;-64.318;2022-12-24T02:39:40;18.77;;;3.20;;
23052;SDS011;11694;-36.632;-64.318;2022-12-24T02:42:18;18.93;;;3.17;;
23052;SDS011;11694;-36.632;-64.318;2022-12-24T02:44:55;15.73;;;3.00;;
23052;SDS011;11694;-36.632;-64.318;2022-12-24T02:47:27;13.60;;;3.00;;
23052;SDS011;11694;-36.632;-64.318;2022-12-24T02:50:00;13.90;;;3.43;;
23052;SDS011;11694;-36.632;-64.318;2022-12-24T02:52:36;16.47;;;3.10;;
23052;SDS011;11694;-36.632;-64.318;2022-12-24T02:55:13;21.43;;;4.20;;
23052;SDS011;11694;-36.632;-64.318;2022-12-24T03:00:44;15.33;;;3.07;;
23052;SDS011;11694;-36.632;-64.318;2022-12-24T03:09:29;13.60;;;3.40;;
23052;SDS011;11694;-36.632;-64.318;2022-12-24T03:12:38;17.13;;;3.73;;
23052;SDS011;11694;-36.632;-64.318;2022-12-24T03:15:12;11.97;;;2.93;;
23052;SDS011;11694;-36.632;-64.318;2022-12-24T03:17:42;21.63;;;3.70;;
23052;SDS011;11694;-36.632;-64.318;2022-12-24T03:20:14;19.77;;;4.33;;
23052;SDS011;11694;-36.632;-64.318;2022-12-24T03:22:48;15.13;;;3.03;;
23052;SDS011;11694;-36.632;-64.318;2022-12-24T03:25:16;17.13;;;3.47;;
23052;SDS011;11694;-36.632;-64.318;2022-12-24T03:27:45;12.90;;;2.90;;
23052;SDS011;11694;-36.632;-64.318;2022-12-24T03:30:14;20.80;;;4.00;;
23052;SDS011;11694;-36.632;-64.318;2022-12-24T03:32:43;15.83;;;3.33;;
23052;SDS011;11694;-36.632;-64.318;2022-12-24T03:35:11;12.93;;;3.37;;
23052;SDS011;11694;-36.632;-64.318;2022-12-24T03:37:40;14.73;;;2.90;;
23052;SDS011;11694;-36.632;-64.318;2022-12-24T03:40:09;14.60;;;3.00;;
23052;SDS011;11694;-36.632;-64.318;2022-12-24T03:42:38;20.07;;;4.00;;
23052;SDS011;11694;-36.632;-64.318;2022-12-24T03:45:08;17.67;;;2.67;;
23052;SDS011;11694;-36.632;-64.318;2022-12-24T03:47:36;15.33;;;3.70;;
23052;SDS011;11694;-36.632;-64.318;2022-12-24T03:50:04;14.70;;;3.13;;
23052;SDS011;11694;-36.632;-64.318;2022-12-24T03:52:35;14.63;;;3.07;;
23052;SDS011;11694;-36.632;-64.318;2022-12-24T03:55:02;16.67;;;2.60;;
23052;SDS011;11694;-36.632;-64.318;2022-12-24T03:57:31;20.63;;;3.43;;
23052;SDS011;11694;-36.632;-64.318;2022-12-24T03:59:58;19.30;;;3.60;;
23052;SDS011;11694;-36.632;-64.318;2022-12-24T04:02:26;15.53;;;3.37;;
23052;SDS011;11694;-36.632;-64.318;2022-12-24T04:04:54;16.90;;;3.23;;
23052;SDS011;11694;-36.632;-64.318;2022-12-24T04:07:22;17.57;;;3.10;;
23052;SDS011;11694;-36.632;-64.318;2022-12-24T04:09:50;18.10;;;2.97;;
23052;SDS011;11694;-36.632;-64.318;2022-12-24T04:12:21;20.60;;;4.03;;
23052;SDS011;11694;-36.632;-64.318;2022-12-24T04:14:49;16.30;;;2.77;;
23052;SDS011;11694;-36.632;-64.318;2022-12-24T04:17:16;14.13;;;3.03;;
23052;SDS011;11694;-36.632;-64.318;2022-12-24T04:19:44;12.83;;;2.93;;
23052;SDS011;11694;-36.632;-64.318;2022-12-24T04:22:11;20.77;;;4.10;;
23052;SDS011;11694;-36.632;-64.318;2022-12-24T04:24:39;16.03;;;3.47;;
23052;SDS011;11694;-36.632;-64.318;2022-12-24T04:27:06;12.97;;;2.87;;
23052;SDS011;11694;-36.632;-64.318;2022-12-24T04:29:33;18.37;;;3.13;;
23052;SDS011;11694;-36.632;-64.318;2022-12-24T04:32:00;15.50;;;3.40;;
23052;SDS011;11694;-36.632;-64.318;2022-12-24T04:34:27;21.00;;;3.33;;
23052;SDS011;11694;-36.632;-64.318;2022-12-24T04:36:55;18.30;;;3.40;;
23052;SDS011;11694;-36.632;-64.318;2022-12-24T04:39:22;15.73;;;2.83;;
23052;SDS011;11694;-36.632;-64.318;2022-12-24T04:41:49;17.07;;;3.27;;
23052;SDS011;11694;-36.632;-64.318;2022-12-24T04:44:16;23.30;;;3.90;;
23052;SDS011;11694;-36.632;-64.318;2022-12-24T04:46:43;15.63;;;3.20;;
23052;SDS011;11694;-36.632;-64.318;2022-12-24T04:49:11;19.43;;;3.10;;
23052;SDS011;11694;-36.632;-64.318;2022-12-24T04:51:38;21.80;;;3.70;;
23052;SDS011;11694;-36.632;-64.318;2022-12-24T04:54:05;12.87;;;3.13;;
23052;SDS011;11694;-36.632;-64.318;2022-12-24T04:56:35;20.73;;;3.07;;
23052;SDS011;11694;-36.632;-64.318;2022-12-24T04:59:02;23.40;;;4.33;;
23052;SDS011;11694;-36.632;-64.318;2022-12-24T05:01:30;17.30;;;3.07;;
23052;SDS011;11694;-36.632;-64.318;2022-12-24T05:03:58;15.47;;;3.03;;
23052;SDS011;11694;-36.632;-64.318;2022-12-24T05:06:26;14.43;;;2.67;;
23052;SDS011;11694;-36.632;-64.318;2022-12-24T05:08:56;14.60;;;3.30;;
23052;SDS011;11694;-36.632;-64.318;2022-12-24T05:11:23;19.60;;;3.37;;
23052;SDS011;11694;-36.632;-64.318;2022-12-24T05:13:51;15.40;;;3.50;;
23052;SDS011;11694;-36.632;-64.318;2022-12-24T05:16:19;22.53;;;3.87;;
23052;SDS011;11694;-36.632;-64.318;2022-12-24T05:18:47;16.97;;;3.27;;
23052;SDS011;11694;-36.632;-64.318;2022-12-24T05:21:15;15.23;;;3.10;;
23052;SDS011;11694;-36.632;-64.318;2022-12-24T05:23:46;15.80;;;3.00;;
23052;SDS011;11694;-36.632;-64.318;2022-12-24T05:26:36;15.97;;;3.17;;
23052;SDS011;11694;-36.632;-64.318;2022-12-24T05:29:07;20.40;;;3.30;;
23052;SDS011;11694;-36.632;-64.318;2022-12-24T05:31:36;13.17;;;3.37;;
23052;SDS011;11694;-36.632;-64.318;2022-12-24T05:34:05;16.53;;;4.10;;
23052;SDS011;11694;-36.632;-64.318;2022-12-24T05:36:33;13.03;;;3.03;;
23052;SDS011;11694;-36.632;-64.318;2022-12-24T05:39:00;18.67;;;3.10;;
23052;SDS011;11694;-36.632;-64.318;2022-12-24T05:41:28;16.00;;;3.57;;
23052;SDS011;11694;-36.632;-64.318;2022-12-24T05:43:56;18.00;;;3.07;;
23052;SDS011;11694;-36.632;-64.318;2022-12-24T05:46:23;15.43;;;3.30;;
23052;SDS011;11694;-36.632;-64.318;2022-12-24T05:48:51;16.90;;;2.90;;
23052;SDS011;11694;-36.632;-64.318;2022-12-24T05:51:19;20.03;;;3.33;;
23052;SDS011;11694;-36.632;-64.318;2022-12-24T05:53:48;13.23;;;2.80;;
23052;SDS011;11694;-36.632;-64.318;2022-12-24T05:56:17;15.53;;;3.33;;
23052;SDS011;11694;-36.632;-64.318;2022-12-24T05:58:46;17.07;;;2.80;;
23052;SDS011;11694;-36.632;-64.318;2022-12-24T06:01:14;13.03;;;2.70;;
23052;SDS011;11694;-36.632;-64.318;2022-12-24T06:03:42;18.17;;;3.53;;
23052;SDS011;11694;-36.632;-64.318;2022-12-24T06:06:10;19.53;;;3.17;;
23052;SDS011;11694;-36.632;-64.318;2022-12-24T06:08:45;12.60;;;3.03;;
23052;SDS011;11694;-36.632;-64.318;2022-12-24T06:11:14;14.80;;;3.07;;
23052;SDS011;11694;-36.632;-64.318;2022-12-24T06:13:42;15.50;;;3.10;;
23052;SDS011;11694;-36.632;-64.318;2022-12-24T06:16:16;18.20;;;3.33;;
23052;SDS011;11694;-36.632;-64.318;2022-12-24T06:18:44;17.43;;;3.30;;
23052;SDS011;11694;-36.632;-64.318;2022-12-24T06:21:12;16.37;;;3.27;;
23052;SDS011;11694;-36.632;-64.318;2022-12-24T06:23:40;18.03;;;3.30;;
23052;SDS011;11694;-36.632;-64.318;2022-12-24T06:26:10;17.53;;;3.80;;
23052;SDS011;11694;-36.632;-64.318;2022-12-24T06:28:39;12.87;;;3.03;;
23052;SDS011;11694;-36.632;-64.318;2022-12-24T06:31:08;16.97;;;3.17;;
23052;SDS011;11694;-36.632;-64.318;2022-12-24T06:33:40;15.73;;;3.33;;
23052;SDS011;11694;-36.632;-64.318;2022-12-24T06:36:08;19.83;;;3.33;;
23052;SDS011;11694;-36.632;-64.318;2022-12-24T06:38:40;12.53;;;2.47;;
23052;SDS011;11694;-36.632;-64.318;2022-12-24T06:41:08;15.43;;;2.60;;
23052;SDS011;11694;-36.632;-64.318;2022-12-24T06:43:35;15.37;;;3.00;;
23052;SDS011;11694;-36.632;-64.318;2022-12-24T06:46:02;20.60;;;3.33;;
23052;SDS011;11694;-36.632;-64.318;2022-12-24T06:48:30;16.90;;;3.60;;
23052;SDS011;11694;-36.632;-64.318;2022-12-24T06:50:57;14.30;;;3.10;;
23052;SDS011;11694;-36.632;-64.318;2022-12-24T06:53:26;20.83;;;3.80;;
23052;SDS011;11694;-36.632;-64.318;2022-12-24T06:55:59;18.70;;;3.07;;
23052;SDS011;11694;-36.632;-64.318;2022-12-24T06:58:31;14.87;;;2.60;;
23052;SDS011;11694;-36.632;-64.318;2022-12-24T07:01:03;18.17;;;2.87;;
23052;SDS011;11694;-36.632;-64.318;2022-12-24T07:03:31;11.83;;;3.03;;
23052;SDS011;11694;-36.632;-64.318;2022-12-24T07:05:59;11.53;;;2.40;;
23052;SDS011;11694;-36.632;-64.318;2022-12-24T07:08:26;15.53;;;3.20;;
23052;SDS011;11694;-36.632;-64.318;2022-12-24T07:10:53;14.07;;;3.00;;
23052;SDS011;11694;-36.632;-64.318;2022-12-24T07:13:20;14.20;;;2.13;;
23052;SDS011;11694;-36.632;-64.318;2022-12-24T07:15:55;16.77;;;2.77;;
23052;SDS011;11694;-36.632;-64.318;2022-12-24T07:18:26;12.87;;;2.37;;
23052;SDS011;11694;-36.632;-64.318;2022-12-24T07:20:54;15.40;;;3.53;;
23052;SDS011;11694;-36.632;-64.318;2022-12-24T07:23:21;13.87;;;2.77;;
23052;SDS011;11694;-36.632;-64.318;2022-12-24T07:25:48;14.47;;;2.80;;
23052;SDS011;11694;-36.632;-64.318;2022-12-24T07:28:16;13.87;;;2.67;;
23052;SDS011;11694;-36.632;-64.318;2022-12-24T07:30:43;13.70;;;2.83;;
23052;SDS011;11694;-36.632;-64.318;2022-12-24T07:33:10;17.17;;;3.37;;
23052;SDS011;11694;-36.632;-64.318;2022-12-24T07:35:37;12.23;;;2.40;;
23052;SDS011;11694;-36.632;-64.318;2022-12-24T07:38:05;15.17;;;2.97;;
23052;SDS011;11694;-36.632;-64.318;2022-12-24T07:40:32;18.43;;;2.80;;
23052;SDS011;11694;-36.632;-64.318;2022-12-24T07:43:00;17.97;;;3.00;;
23052;SDS011;11694;-36.632;-64.318;2022-12-24T07:45:28;19.13;;;2.77;;
23052;SDS011;11694;-36.632;-64.318;2022-12-24T07:47:55;16.77;;;3.30;;
23052;SDS011;11694;-36.632;-64.318;2022-12-24T07:50:22;14.93;;;2.93;;
23052;SDS011;11694;-36.632;-64.318;2022-12-24T07:52:49;20.23;;;3.03;;
23052;SDS011;11694;-36.632;-64.318;2022-12-24T07:55:16;13.53;;;3.10;;
23052;SDS011;11694;-36.632;-64.318;2022-12-24T07:57:43;16.57;;;2.80;;
23052;SDS011;11694;-36.632;-64.318;2022-12-24T08:00:10;16.07;;;3.40;;
23052;SDS011;11694;-36.632;-64.318;2022-12-24T08:02:38;20.20;;;3.50;;
23052;SDS011;11694;-36.632;-64.318;2022-12-24T08:05:06;14.17;;;2.17;;
23052;SDS011;11694;-36.632;-64.318;2022-12-24T08:07:33;13.40;;;2.70;;
23052;SDS011;11694;-36.632;-64.318;2022-12-24T08:10:00;12.17;;;2.63;;
23052;SDS011;11694;-36.632;-64.318;2022-12-24T08:12:27;17.00;;;2.90;;
23052;SDS011;11694;-36.632;-64.318;2022-12-24T08:14:54;12.77;;;2.63;;
23052;SDS011;11694;-36.632;-64.318;2022-12-24T08:17:21;14.67;;;2.77;;
23052;SDS011;11694;-36.632;-64.318;2022-12-24T08:19:48;18.07;;;2.73;;
23052;SDS011;11694;-36.632;-64.318;2022-12-24T08:22:15;12.83;;;2.87;;
23052;SDS011;11694;-36.632;-64.318;2022-12-24T08:24:42;10.63;;;2.17;;
23052;SDS011;11694;-36.632;-64.318;2022-12-24T08:27:09;12.13;;;2.70;;
23052;SDS011;11694;-36.632;-64.318;2022-12-24T08:29:36;11.13;;;2.13;;
23052;SDS011;11694;-36.632;-64.318;2022-12-24T08:32:04;11.50;;;2.47;;
23052;SDS011;11694;-36.632;-64.318;2022-12-24T08:34:31;13.73;;;2.03;;
23052;SDS011;11694;-36.632;-64.318;2022-12-24T08:36:58;11.57;;;2.40;;
23052;SDS011;11694;-36.632;-64.318;2022-12-24T08:39:25;11.07;;;2.50;;
23052;SDS011;11694;-36.632;-64.318;2022-12-24T08:41:52;13.77;;;2.53;;
23052;SDS011;11694;-36.632;-64.318;2022-12-24T08:44:19;11.03;;;2.47;;
23052;SDS011;11694;-36.632;-64.318;2022-12-24T08:46:47;10.77;;;2.00;;
23052;SDS011;11694;-36.632;-64.318;2022-12-24T08:49:14;11.80;;;2.40;;
23052;SDS011;11694;-36.632;-64.318;2022-12-24T08:51:41;11.53;;;2.30;;
23052;SDS011;11694;-36.632;-64.318;2022-12-24T08:54:08;8.03;;;2.23;;
23052;SDS011;11694;-36.632;-64.318;2022-12-24T08:56:35;16.47;;;2.90;;
23052;SDS011;11694;-36.632;-64.318;2022-12-24T08:59:03;11.33;;;2.20;;
23052;SDS011;11694;-36.632;-64.318;2022-12-24T09:01:30;11.37;;;2.27;;
23052;SDS011;11694;-36.632;-64.318;2022-12-24T09:03:57;12.47;;;2.63;;
23052;SDS011;11694;-36.632;-64.318;2022-12-24T09:06:26;18.67;;;3.03;;
23052;SDS011;11694;-36.632;-64.318;2022-12-24T09:08:53;13.07;;;2.27;;
23052;SDS011;11694;-36.632;-64.318;2022-12-24T09:11:20;8.23;;;2.23;;
23052;SDS011;11694;-36.632;-64.318;2022-12-24T09:13:47;13.60;;;2.37;;
23052;SDS011;11694;-36.632;-64.318;2022-12-24T09:16:14;9.30;;;2.23;;
23052;SDS011;11694;-36.632;-64.318;2022-12-24T09:18:41;14.77;;;2.70;;
23052;SDS011;11694;-36.632;-64.318;2022-12-24T09:21:10;13.33;;;2.63;;
23052;SDS011;11694;-36.632;-64.318;2022-12-24T09:23:40;10.87;;;2.63;;
23052;SDS011;11694;-36.632;-64.318;2022-12-24T09:26:08;13.57;;;2.97;;
23052;SDS011;11694;-36.632;-64.318;2022-12-24T09:28:46;11.13;;;3.13;;
23052;SDS011;11694;-36.632;-64.318;2022-12-24T09:31:15;11.20;;;2.37;;
23052;SDS011;11694;-36.632;-64.318;2022-12-24T09:33:44;12.43;;;2.40;;
23052;SDS011;11694;-36.632;-64.318;2022-12-24T09:36:13;14.67;;;2.20;;
23052;SDS011;11694;-36.632;-64.318;2022-12-24T09:38:40;8.97;;;2.00;;
23052;SDS011;11694;-36.632;-64.318;2022-12-24T09:43:58;15.63;;;3.27;;
23052;SDS011;11694;-36.632;-64.318;2022-12-24T09:46:40;10.60;;;2.73;;
23052;SDS011;11694;-36.632;-64.318;2022-12-24T09:49:14;12.27;;;2.60;;
23052;SDS011;11694;-36.632;-64.318;2022-12-24T09:52:07;9.80;;;2.50;;
23052;SDS011;11694;-36.632;-64.318;2022-12-24T09:54:38;10.33;;;2.43;;
23052;SDS011;11694;-36.632;-64.318;2022-12-24T09:57:26;12.63;;;2.90;;
23052;SDS011;11694;-36.632;-64.318;2022-12-24T10:00:00;9.33;;;1.93;;
23052;SDS011;11694;-36.632;-64.318;2022-12-24T10:02:29;13.53;;;2.33;;
23052;SDS011;11694;-36.632;-64.318;2022-12-24T10:04:57;10.23;;;2.00;;
23052;SDS011;11694;-36.632;-64.318;2022-12-24T10:10:21;7.93;;;1.87;;
23052;SDS011;11694;-36.632;-64.318;2022-12-24T10:18:58;8.87;;;2.13;;
23052;SDS011;11694;-36.632;-64.318;2022-12-24T10:27:05;8.07;;;1.77;;
23052;SDS011;11694;-36.632;-64.318;2022-12-24T10:29:49;13.00;;;2.23;;
23052;SDS011;11694;-36.632;-64.318;2022-12-24T10:32:30;6.10;;;1.53;;
23052;SDS011;11694;-36.632;-64.318;2022-12-24T10:37:45;8.23;;;1.47;;
23052;SDS011;11694;-36.632;-64.318;2022-12-24T10:40:25;8.70;;;1.80;;
23052;SDS011;11694;-36.632;-64.318;2022-12-24T10:43:07;8.03;;;1.77;;
23052;SDS011;11694;-36.632;-64.318;2022-12-24T10:45:44;6.87;;;1.43;;
23052;SDS011;11694;-36.632;-64.318;2022-12-24T10:48:16;10.93;;;1.63;;
23052;SDS011;11694;-36.632;-64.318;2022-12-24T10:50:55;8.93;;;1.60;;
23052;SDS011;11694;-36.632;-64.318;2022-12-24T10:53:42;7.10;;;1.40;;
23052;SDS011;11694;-36.632;-64.318;2022-12-24T10:56:28;6.53;;;1.50;;
23052;SDS011;11694;-36.632;-64.318;2022-12-24T10:58:55;8.13;;;2.10;;
23052;SDS011;11694;-36.632;-64.318;2022-12-24T11:04:18;6.63;;;1.80;;
23052;SDS011;11694;-36.632;-64.318;2022-12-24T11:06:58;7.83;;;1.50;;
23052;SDS011;11694;-36.632;-64.318;2022-12-24T11:09:33;8.17;;;2.37;;
23052;SDS011;11694;-36.632;-64.318;2022-12-24T11:12:05;8.57;;;1.80;;
23052;SDS011;11694;-36.632;-64.318;2022-12-24T11:14:42;7.30;;;1.50;;
23052;SDS011;11694;-36.632;-64.318;2022-12-24T11:17:17;9.43;;;1.50;;
23052;SDS011;11694;-36.632;-64.318;2022-12-24T11:19:47;5.70;;;1.73;;
23052;SDS011;11694;-36.632;-64.318;2022-12-24T11:45:49;6.07;;;1.33;;
23052;SDS011;11694;-36.632;-64.318;2022-12-24T11:48:32;3.53;;;1.20;;
23052;SDS011;11694;-36.632;-64.318;2022-12-24T11:51:00;2.97;;;1.00;;
23052;SDS011;11694;-36.632;-64.318;2022-12-24T11:53:37;4.63;;;1.47;;
23052;SDS011;11694;-36.632;-64.318;2022-12-24T11:56:13;4.97;;;1.40;;
23052;SDS011;11694;-36.632;-64.318;2022-12-24T11:59:14;8.30;;;1.53;;
23052;SDS011;11694;-36.632;-64.318;2022-12-24T12:04:39;6.13;;;1.43;;
23052;SDS011;11694;-36.632;-64.318;2022-12-24T12:07:17;6.17;;;1.40;;
23052;SDS011;11694;-36.632;-64.318;2022-12-24T12:09:51;3.37;;;0.77;;
23052;SDS011;11694;-36.632;-64.318;2022-12-24T12:12:40;5.13;;;1.37;;
23052;SDS011;11694;-36.632;-64.318;2022-12-24T12:15:14;7.37;;;1.43;;
23052;SDS011;11694;-36.632;-64.318;2022-12-24T12:17:49;3.13;;;0.80;;
23052;SDS011;11694;-36.632;-64.318;2022-12-24T12:25:52;3.43;;;1.00;;
23052;SDS011;11694;-36.632;-64.318;2022-12-24T12:36:30;6.27;;;1.50;;
23052;SDS011;11694;-36.632;-64.318;2022-12-24T12:39:09;3.90;;;0.97;;
23052;SDS011;11694;-36.632;-64.318;2022-12-24T12:56:00;2.30;;;0.83;;
23052;SDS011;11694;-36.632;-64.318;2022-12-24T13:07:10;7.00;;;0.93;;
23052;SDS011;11694;-36.632;-64.318;2022-12-24T13:12:46;4.33;;;1.03;;
23052;SDS011;11694;-36.632;-64.318;2022-12-24T13:21:00;4.03;;;1.00;;
23052;SDS011;11694;-36.632;-64.318;2022-12-24T13:23:28;4.22;;;0.70;;
23052;SDS011;11694;-36.632;-64.318;2022-12-24T13:25:56;2.33;;;0.63;;
23052;SDS011;11694;-36.632;-64.318;2022-12-24T13:30:52;7.95;;;0.95;;
23052;SDS011;11694;-36.632;-64.318;2022-12-24T13:36:09;2.90;;;0.73;;
23052;SDS011;11694;-36.632;-64.318;2022-12-24T13:46:46;6.07;;;1.00;;
23052;SDS011;11694;-36.632;-64.318;2022-12-24T13:49:36;1.15;;;0.90;;
23052;SDS011;11694;-36.632;-64.318;2022-12-24T14:02:51;9.65;;;1.10;;
23052;SDS011;11694;-36.632;-64.318;2022-12-24T14:05:38;4.50;;;0.90;;
23052;SDS011;11694;-36.632;-64.318;2022-12-24T14:19:18;10.60;;;1.35;;
23052;SDS011;11694;-36.632;-64.318;2022-12-24T14:24:57;2.90;;;0.95;;
23052;SDS011;11694;-36.632;-64.318;2022-12-24T14:30:05;3.00;;;0.70;;
23052;SDS011;11694;-36.632;-64.318;2022-12-24T14:32:39;4.40;;;1.00;;
23052;SDS011;11694;-36.632;-64.318;2022-12-24T14:37:44;10.98;;;1.52;;
23052;SDS011;11694;-36.632;-64.318;2022-12-24T14:40:18;15.18;;;1.55;;
23052;SDS011;11694;-36.632;-64.318;2022-12-24T14:45:50;7.93;;;1.15;;
23052;SDS011;11694;-36.632;-64.318;2022-12-24T14:51:27;5.13;;;0.70;;
23052;SDS011;11694;-36.632;-64.318;2022-12-24T14:59:43;3.38;;;0.82;;
23052;SDS011;11694;-36.632;-64.318;2022-12-24T15:05:16;1.25;;;0.70;;
23052;SDS011;11694;-36.632;-64.318;2022-12-24T15:07:59;4.63;;;0.80;;
23052;SDS011;11694;-36.632;-64.318;2022-12-24T15:10:52;3.88;;;0.98;;
23052;SDS011;11694;-36.632;-64.318;2022-12-24T15:16:32;8.60;;;1.00;;
23052;SDS011;11694;-36.632;-64.318;2022-12-24T15:19:04;2.25;;;0.45;;
23052;SDS011;11694;-36.632;-64.318;2022-12-24T15:21:45;2.78;;;1.02;;
23052;SDS011;11694;-36.632;-64.318;2022-12-24T15:24:26;9.50;;;1.42;;
23052;SDS011;11694;-36.632;-64.318;2022-12-24T15:26:57;12.70;;;1.70;;
23052;SDS011;11694;-36.632;-64.318;2022-12-24T15:29:32;7.38;;;0.90;;
23052;SDS011;11694;-36.632;-64.318;2022-12-24T15:32:04;4.18;;;0.95;;
23052;SDS011;11694;-36.632;-64.318;2022-12-24T15:34:37;4.38;;;0.70;;
23052;SDS011;11694;-36.632;-64.318;2022-12-24T15:39:52;3.63;;;0.70;;
23052;SDS011;11694;-36.632;-64.318;2022-12-24T15:42:25;4.53;;;1.05;;
23052;SDS011;11694;-36.632;-64.318;2022-12-24T15:45:04;3.15;;;0.68;;
23052;SDS011;11694;-36.632;-64.318;2022-12-24T15:47:37;7.15;;;0.77;;
23052;SDS011;11694;-36.632;-64.318;2022-12-24T15:50:22;4.15;;;0.98;;
23052;SDS011;11694;-36.632;-64.318;2022-12-24T15:53:14;2.97;;;1.70;;
23052;SDS011;11694;-36.632;-64.318;2022-12-24T15:55:45;5.05;;;0.80;;
23052;SDS011;11694;-36.632;-64.318;2022-12-24T15:58:28;1.23;;;0.60;;
23052;SDS011;11694;-36.632;-64.318;2022-12-24T16:03:41;2.17;;;0.90;;
23052;SDS011;11694;-36.632;-64.318;2022-12-24T16:06:21;4.38;;;0.93;;
23052;SDS011;11694;-36.632;-64.318;2022-12-24T16:08:48;1.27;;;0.50;;
23052;SDS011;11694;-36.632;-64.318;2022-12-24T16:11:17;4.97;;;1.30;;
23052;SDS011;11694;-36.632;-64.318;2022-12-24T16:16:37;2.70;;;0.50;;
23052;SDS011;11694;-36.632;-64.318;2022-12-24T16:21:58;5.22;;;1.20;;
23052;SDS011;11694;-36.632;-64.318;2022-12-24T16:24:46;8.63;;;1.30;;
23052;SDS011;11694;-36.632;-64.318;2022-12-24T16:27:13;8.15;;;1.60;;
23052;SDS011;11694;-36.632;-64.318;2022-12-24T16:29:41;15.70;;;1.80;;
23052;SDS011;11694;-36.632;-64.318;2022-12-24T16:32:41;8.07;;;1.30;;
23052;SDS011;11694;-36.632;-64.318;2022-12-24T16:35:03;4.70;;;0.52;;
23052;SDS011;11694;-36.632;-64.318;2022-12-24T16:37:32;4.20;;;1.10;;
23052;SDS011;11694;-36.632;-64.318;2022-12-24T16:39:59;2.75;;;1.00;;
23052;SDS011;11694;-36.632;-64.318;2022-12-24T16:42:26;2.25;;;0.90;;
23052;SDS011;11694;-36.632;-64.318;2022-12-24T16:45:12;3.00;;;0.52;;
23052;SDS011;11694;-36.632;-64.318;2022-12-24T16:47:39;2.00;;;0.98;;
23052;SDS011;11694;-36.632;-64.318;2022-12-24T16:50:07;6.55;;;1.20;;
23052;SDS011;11694;-36.632;-64.318;2022-12-24T16:52:39;9.57;;;1.58;;
23052;SDS011;11694;-36.632;-64.318;2022-12-24T16:55:08;6.10;;;1.00;;
23052;SDS011;11694;-36.632;-64.318;2022-12-24T16:57:40;5.95;;;0.95;;
23052;SDS011;11694;-36.632;-64.318;2022-12-24T17:00:18;5.63;;;0.82;;
23052;SDS011;11694;-36.632;-64.318;2022-12-24T17:02:48;2.90;;;0.70;;
23052;SDS011;11694;-36.632;-64.318;2022-12-24T17:05:15;6.13;;;0.75;;
23052;SDS011;11694;-36.632;-64.318;2022-12-24T17:07:43;2.55;;;0.80;;
23052;SDS011;11694;-36.632;-64.318;2022-12-24T17:10:11;1.48;;;0.70;;
23052;SDS011;11694;-36.632;-64.318;2022-12-24T17:12:39;5.43;;;0.82;;
23052;SDS011;11694;-36.632;-64.318;2022-12-24T17:15:08;3.63;;;0.70;;
23052;SDS011;11694;-36.632;-64.318;2022-12-24T17:17:35;4.22;;;0.80;;
23052;SDS011;11694;-36.632;-64.318;2022-12-24T17:20:06;20.30;;;3.13;;
23052;SDS011;11694;-36.632;-64.318;2022-12-24T17:22:34;19.77;;;2.78;;
23052;SDS011;11694;-36.632;-64.318;2022-12-24T17:25:02;20.65;;;1.45;;
23052;SDS011;11694;-36.632;-64.318;2022-12-24T17:27:30;3.30;;;0.90;;
23052;SDS011;11694;-36.632;-64.318;2022-12-24T17:29:58;1.60;;;0.60;;
23052;SDS011;11694;-36.632;-64.318;2022-12-24T17:32:25;5.00;;;1.13;;
23052;SDS011;11694;-36.632;-64.318;2022-12-24T17:38:12;5.63;;;0.90;;
23052;SDS011;11694;-36.632;-64.318;2022-12-24T17:40:40;4.65;;;0.80;;